Time;durP1;ratioP1;P1;durP2;ratioP2;P2;SDS_P1;SDS_P2;PMS_P1;PMS_P2;Temp;Humidity;BMP_temperature;BMP_pressure;BME280_temperature;BME280_humidity;BME280_pressure;Samples;Min_cycle;Max_cycle;Signal;HPM_P1;HPM_P2
2021/12/31 00:02:28;;;;;;;0.10;0.10;;;;;;;;;;5063228;23;20079;-96
2021/12/31 00:05:11;;;;;;;0.10;0.10;;;;;;;;;;5000732;28;20072;-94
2021/12/31 00:07:38;;;;;;;0.10;0.10;;;;;;;;;;5009121;28;20041;-94
2021/12/31 00:10:05;;;;;;;0.10;0.10;;;;;;;;;;5001350;28;20045;-94
2021/12/31 00:12:47;;;;;;;;;;;;;;;;;;;;;
2021/12/31 00:15:19;;;;;;;0.20;0.20;;;;;;;;;;5031919;28;20044;-96
2021/12/31 00:18:07;;;;;;;0.10;0.10;;;;;;;;;;5017357;28;20053;-95
2021/12/31 00:20:51;;;;;;;0.10;0.10;;;;;;;;;;5017247;28;20033;-96
2021/12/31 00:23:23;;;;;;;0.20;0.20;;;;;;;;;;5016485;28;20461;-94
2021/12/31 00:25:52;;;;;;;0.10;0.10;;;;;;;;;;5017189;28;20041;-93
2021/12/31 00:28:18;;;;;;;0.10;0.10;;;;;;;;;;5016284;28;20370;-94
2021/12/31 00:30:46;;;;;;;0.10;0.10;;;;;;;;;;5015829;28;20037;-94
2021/12/31 00:33:13;;;;;;;0.10;0.10;;;;;;;;;;5016220;28;20041;-96
2021/12/31 00:35:39;;;;;;;0.10;0.10;;;;;;;;;;5016875;28;20045;-93
2021/12/31 00:38:05;;;;;;;0.10;0.10;;;;;;;;;;5016429;28;20132;-94
2021/12/31 00:40:31;;;;;;;0.10;0.10;;;;;;;;;;5016192;28;20088;-95
2021/12/31 00:42:57;;;;;;;0.10;0.10;;;;;;;;;;5016133;28;20041;-94
2021/12/31 00:45:24;;;;;;;0.10;0.10;;;;;;;;;;5015751;28;20045;-93
2021/12/31 00:47:50;;;;;;;0.10;0.10;;;;;;;;;;5016024;28;20045;-93
2021/12/31 00:50:16;;;;;;;0.10;0.10;;;;;;;;;;5015605;28;20141;-94
2021/12/31 00:52:43;;;;;;;0.10;0.10;;;;;;;;;;5016162;28;20063;-93
2021/12/31 00:55:12;;;;;;;0.20;0.20;;;;;;;;;;5016074;28;20038;-93
2021/12/31 00:57:38;;;;;;;0.10;0.10;;;;;;;;;;5016160;28;20113;-93
2021/12/31 01:00:05;;;;;;;0.10;0.10;;;;;;;;;;5015941;28;20041;-92
2021/12/31 01:02:31;;;;;;;0.10;0.10;;;;;;;;;;5015803;28;20223;-95
2021/12/31 01:04:57;;;;;;;0.10;0.10;;;;;;;;;;5015497;28;20049;-93
2021/12/31 01:07:23;;;;;;;0.10;0.10;;;;;;;;;;5015904;28;20448;-93
2021/12/31 01:09:49;;;;;;;0.20;0.20;;;;;;;;;;5015678;28;20041;-91
2021/12/31 01:12:15;;;;;;;0.20;0.20;;;;;;;;;;5015291;28;20437;-93
2021/12/31 01:14:53;;;;;;;0.17;0.17;;;;;;;;;;5015436;28;20507;-93
2021/12/31 01:17:26;;;;;;;0.20;0.20;;;;;;;;;;5016912;28;20045;-92
2021/12/31 01:19:52;;;;;;;0.10;0.10;;;;;;;;;;5016384;28;20049;-95
2021/12/31 01:22:18;;;;;;;0.10;0.10;;;;;;;;;;5015568;28;20052;-92
2021/12/31 01:24:44;;;;;;;0.20;0.20;;;;;;;;;;5031675;28;20046;-94
2021/12/31 01:27:10;;;;;;;0.10;0.10;;;;;;;;;;5015374;28;20183;-95
2021/12/31 01:29:36;;;;;;;0.10;0.10;;;;;;;;;;5014833;28;20136;-94
2021/12/31 01:32:12;;;;;;;0.10;0.10;;;;;;;;;;5015387;28;20507;-95
2021/12/31 01:34:44;;;;;;;0.10;0.10;;;;;;;;;;5017575;28;20037;-95
2021/12/31 01:37:10;;;;;;;0.13;0.13;;;;;;;;;;5015931;28;20504;-92
2021/12/31 01:39:36;;;;;;;0.30;0.30;;;;;;;;;;5015213;28;20049;-93
2021/12/31 01:42:07;;;;;;;0.10;0.10;;;;;;;;;;5015192;28;20470;-95
2021/12/31 01:44:43;;;;;;;0.10;0.10;;;;;;;;;;5015855;28;20332;-93
2021/12/31 01:47:12;;;;;;;0.35;0.35;;;;;;;;;;5016350;28;20073;-93
2021/12/31 01:49:40;;;;;;;0.10;0.10;;;;;;;;;;5018568;28;20052;-92
2021/12/31 01:52:26;;;;;;;0.10;0.10;;;;;;;;;;5016362;28;20124;-95
2021/12/31 01:54:55;;;;;;;0.30;0.30;;;;;;;;;;5016969;28;20049;-93
2021/12/31 01:57:21;;;;;;;0.10;0.10;;;;;;;;;;5015168;28;20376;-92
2021/12/31 01:59:47;;;;;;;0.10;0.10;;;;;;;;;;5015111;28;20049;-93
2021/12/31 02:02:17;;;;;;;2.17;1.08;;;;;;;;;;5015307;28;20037;-93
2021/12/31 02:04:43;;;;;;;0.10;0.10;;;;;;;;;;5015380;28;20132;-93
2021/12/31 02:07:09;;;;;;;0.10;0.10;;;;;;;;;;5014971;28;20136;-94
2021/12/31 02:09:42;;;;;;;0.15;0.15;;;;;;;;;;5014856;28;20408;-95
2021/12/31 02:12:08;;;;;;;0.10;0.10;;;;;;;;;;5015869;28;20306;-93
2021/12/31 02:14:34;;;;;;;0.10;0.10;;;;;;;;;;5014376;28;20310;-93
2021/12/31 02:17:00;;;;;;;0.10;0.10;;;;;;;;;;5017322;28;20124;-94
2021/12/31 02:19:28;;;;;;;0.10;0.10;;;;;;;;;;5018273;28;20125;-94
2021/12/31 02:21:57;;;;;;;0.10;0.10;;;;;;;;;;5018588;28;20063;-91
2021/12/31 02:24:23;;;;;;;0.10;0.10;;;;;;;;;;5035187;28;20087;-92
2021/12/31 02:26:49;;;;;;;0.10;0.10;;;;;;;;;;5018521;28;20041;-95
2021/12/31 02:29:16;;;;;;;0.10;0.10;;;;;;;;;;5018559;28;20041;-94
2021/12/31 02:31:42;;;;;;;0.10;0.10;;;;;;;;;;5018749;28;20041;-92
2021/12/31 02:34:08;;;;;;;0.10;0.10;;;;;;;;;;5018139;28;20048;-92
2021/12/31 02:36:34;;;;;;;0.10;0.10;;;;;;;;;;5034672;28;20037;-95
2021/12/31 02:39:00;;;;;;;0.10;0.10;;;;;;;;;;5018549;28;20041;-92
2021/12/31 02:41:26;;;;;;;0.20;0.20;;;;;;;;;;5018187;28;20061;-93
2021/12/31 02:43:52;;;;;;;0.13;0.13;;;;;;;;;;5018247;28;20144;-94
2021/12/31 02:46:18;;;;;;;0.17;0.17;;;;;;;;;;5017968;28;20155;-93
2021/12/31 02:48:44;;;;;;;0.10;0.10;;;;;;;;;;5018183;28;20064;-93
2021/12/31 02:51:10;;;;;;;0.10;0.10;;;;;;;;;;5017921;28;20048;-92
2021/12/31 02:53:40;;;;;;;0.10;0.10;;;;;;;;;;5018555;28;20484;-93
2021/12/31 02:56:10;;;;;;;0.20;0.20;;;;;;;;;;5018110;28;20128;-92
2021/12/31 02:58:36;;;;;;;0.10;0.10;;;;;;;;;;5018005;28;20124;-93
2021/12/31 03:01:03;;;;;;;0.10;0.10;;;;;;;;;;5017642;28;20088;-93
2021/12/31 03:03:29;;;;;;;0.10;0.10;;;;;;;;;;5017660;28;20041;-93
2021/12/31 03:05:55;;;;;;;0.10;0.10;;;;;;;;;;5018060;28;20044;-92
2021/12/31 03:08:22;;;;;;;0.10;0.10;;;;;;;;;;5018040;28;20485;-94
2021/12/31 03:10:48;;;;;;;0.10;0.10;;;;;;;;;;5019714;28;20133;-92
2021/12/31 03:13:14;;;;;;;0.10;0.10;;;;;;;;;;5018249;28;20081;-92
2021/12/31 03:15:40;;;;;;;0.10;0.10;;;;;;;;;;5017597;28;20048;-92
2021/12/31 03:18:06;;;;;;;0.10;0.10;;;;;;;;;;5017679;28;20087;-92
2021/12/31 03:20:43;;;;;;;0.20;0.20;;;;;;;;;;5017871;28;20132;-94
2021/12/31 03:23:09;;;;;;;0.10;0.10;;;;;;;;;;5018753;28;20038;-93
2021/12/31 03:25:35;;;;;;;0.10;0.10;;;;;;;;;;5017234;28;20045;-94
2021/12/31 03:28:01;;;;;;;0.10;0.10;;;;;;;;;;5016997;28;20160;-92
2021/12/31 03:30:27;;;;;;;0.20;0.20;;;;;;;;;;5016983;28;20057;-94
2021/12/31 03:32:53;;;;;;;0.10;0.10;;;;;;;;;;5017336;28;20041;-94
2021/12/31 03:35:19;;;;;;;0.10;0.10;;;;;;;;;;5017502;28;20037;-94
2021/12/31 03:37:45;;;;;;;0.28;0.28;;;;;;;;;;5017144;28;20050;-93
2021/12/31 03:40:12;;;;;;;0.10;0.10;;;;;;;;;;5017412;28;20456;-94
2021/12/31 03:42:39;;;;;;;0.10;0.10;;;;;;;;;;5016957;28;20075;-94
2021/12/31 03:45:05;;;;;;;0.10;0.10;;;;;;;;;;5016978;28;20049;-92
2021/12/31 03:47:32;;;;;;;0.10;0.10;;;;;;;;;;5016830;28;20107;-96
2021/12/31 03:49:58;;;;;;;0.15;0.13;;;;;;;;;;5033158;28;20042;-93
2021/12/31 03:52:24;;;;;;;0.10;0.10;;;;;;;;;;5016672;28;20041;-94
2021/12/31 03:54:50;;;;;;;0.10;0.10;;;;;;;;;;5033597;28;20483;-94
2021/12/31 03:57:16;;;;;;;0.10;0.10;;;;;;;;;;5016878;28;20045;-95
2021/12/31 03:59:42;;;;;;;0.10;0.10;;;;;;;;;;5016660;28;20049;-94
2021/12/31 04:02:08;;;;;;;0.30;0.30;;;;;;;;;;5017066;28;20065;-94
2021/12/31 04:04:34;;;;;;;0.25;0.25;;;;;;;;;;5016861;28;20494;-95
2021/12/31 04:07:01;;;;;;;0.10;0.10;;;;;;;;;;5017093;28;20052;-94
2021/12/31 04:09:26;;;;;;;0.25;0.25;;;;;;;;;;5033227;28;20072;-95
2021/12/31 04:11:52;;;;;;;0.10;0.10;;;;;;;;;;5017190;28;20068;-94
2021/12/31 04:14:18;;;;;;;0.10;0.10;;;;;;;;;;5016354;28;20053;-95
2021/12/31 04:16:44;;;;;;;0.32;0.32;;;;;;;;;;5016710;28;20041;-94
2021/12/31 04:19:11;;;;;;;0.10;0.10;;;;;;;;;;5016801;28;20121;-96
2021/12/31 04:21:37;;;;;;;0.20;0.20;;;;;;;;;;5032477;28;20135;-95
2021/12/31 04:24:13;;;;;;;0.10;0.10;;;;;;;;;;5016526;28;20051;-95
2021/12/31 04:26:39;;;;;;;0.20;0.20;;;;;;;;;;5017742;28;20076;-93
2021/12/31 04:29:06;;;;;;;0.15;0.15;;;;;;;;;;5015859;28;20045;-95
2021/12/31 04:31:32;;;;;;;0.10;0.10;;;;;;;;;;5016467;28;20056;-93
2021/12/31 04:33:59;;;;;;;0.10;0.10;;;;;;;;;;5016144;28;20048;-94
2021/12/31 04:36:25;;;;;;;0.10;0.10;;;;;;;;;;5016398;28;20068;-95
2021/12/31 04:38:51;;;;;;;0.10;0.10;;;;;;;;;;5015564;28;20056;-95
2021/12/31 04:41:17;;;;;;;0.10;0.10;;;;;;;;;;5015686;28;20042;-95
2021/12/31 04:43:43;;;;;;;0.10;0.10;;;;;;;;;;5016372;28;20284;-95
2021/12/31 04:46:10;;;;;;;0.10;0.10;;;;;;;;;;5015929;28;20060;-94
2021/12/31 04:48:36;;;;;;;0.10;0.10;;;;;;;;;;5016069;28;20052;-93
2021/12/31 04:51:02;;;;;;;0.15;0.15;;;;;;;;;;5015716;28;20041;-94
2021/12/31 04:53:29;;;;;;;0.20;0.20;;;;;;;;;;5015839;28;20053;-94
2021/12/31 04:55:55;;;;;;;0.20;0.20;;;;;;;;;;5031771;28;20044;-96
2021/12/31 04:58:21;;;;;;;0.10;0.10;;;;;;;;;;5016238;28;20076;-95
2021/12/31 05:00:47;;;;;;;0.10;0.10;;;;;;;;;;5015574;28;20117;-94
2021/12/31 05:03:14;;;;;;;0.10;0.10;;;;;;;;;;5015401;28;20052;-94
2021/12/31 05:05:40;;;;;;;0.10;0.10;;;;;;;;;;5015524;28;20585;-94
2021/12/31 05:08:06;;;;;;;0.20;0.20;;;;;;;;;;5015468;28;20077;-94
2021/12/31 05:10:33;;;;;;;0.10;0.10;;;;;;;;;;5015365;28;20045;-96
2021/12/31 05:13:22;;;;;;;0.28;0.28;;;;;;;;;;5023638;28;20053;-93
2021/12/31 05:15:57;;;;;;;0.20;0.20;;;;;;;;;;5039816;28;20095;-96
2021/12/31 05:18:36;;;;;;;0.10;0.10;;;;;;;;;;5014882;28;20132;-95
2021/12/31 05:21:02;;;;;;;0.10;0.10;;;;;;;;;;4995861;28;20042;-94
2021/12/31 05:23:28;;;;;;;0.30;0.30;;;;;;;;;;4995984;28;20077;-95
2021/12/31 05:25:54;;;;;;;0.10;0.10;;;;;;;;;;4995951;28;20108;-95
2021/12/31 05:28:20;;;;;;;0.10;0.10;;;;;;;;;;4995849;28;20474;-93
2021/12/31 05:30:46;;;;;;;0.20;0.20;;;;;;;;;;4995634;28;20042;-93
2021/12/31 05:33:12;;;;;;;1.25;0.32;;;;;;;;;;4995736;28;20091;-92
2021/12/31 05:35:38;;;;;;;0.15;0.15;;;;;;;;;;4995607;28;20042;-92
2021/12/31 05:38:04;;;;;;;0.10;0.10;;;;;;;;;;4995761;28;20041;-94
2021/12/31 05:40:30;;;;;;;0.10;0.10;;;;;;;;;;5012361;28;20045;-95
2021/12/31 05:42:56;;;;;;;0.10;0.10;;;;;;;;;;4995587;28;20085;-95
2021/12/31 05:45:22;;;;;;;0.10;0.10;;;;;;;;;;5012151;28;20050;-96
2021/12/31 05:47:49;;;;;;;0.22;0.22;;;;;;;;;;4995956;28;20500;-93
2021/12/31 05:50:19;;;;;;;0.25;0.25;;;;;;;;;;4995827;28;20066;-92
2021/12/31 05:52:46;;;;;;;0.10;0.10;;;;;;;;;;4999787;28;20065;-92
2021/12/31 05:55:12;;;;;;;0.20;0.20;;;;;;;;;;4999220;28;20081;-93
2021/12/31 05:57:38;;;;;;;0.10;0.10;;;;;;;;;;4999157;28;20477;-93
2021/12/31 06:00:05;;;;;;;0.10;0.10;;;;;;;;;;4999278;28;20038;-93
2021/12/31 06:02:31;;;;;;;0.10;0.10;;;;;;;;;;4999004;28;20117;-93
2021/12/31 06:04:57;;;;;;;0.10;0.10;;;;;;;;;;5015341;28;20053;-95
2021/12/31 06:07:23;;;;;;;0.10;0.10;;;;;;;;;;4998621;28;20099;-88
2021/12/31 06:09:49;;;;;;;0.20;0.20;;;;;;;;;;5014220;28;20038;-87
2021/12/31 06:12:15;;;;;;;0.17;0.17;;;;;;;;;;4998272;28;20042;-86
2021/12/31 06:14:41;;;;;;;0.10;0.10;;;;;;;;;;5027518;28;20045;-87
2021/12/31 06:17:08;;;;;;;0.10;0.10;;;;;;;;;;5017370;28;20080;-88
2021/12/31 06:19:34;;;;;;;0.10;0.10;;;;;;;;;;5017756;28;20049;-87
2021/12/31 06:22:00;;;;;;;0.10;0.10;;;;;;;;;;5017791;28;20445;-88
2021/12/31 06:24:26;;;;;;;0.13;0.13;;;;;;;;;;5017756;28;20052;-89
2021/12/31 06:26:52;;;;;;;0.17;0.17;;;;;;;;;;5017393;28;20128;-89
2021/12/31 06:29:18;;;;;;;0.10;0.10;;;;;;;;;;5017183;28;20041;-88
2021/12/31 06:31:44;;;;;;;0.10;0.10;;;;;;;;;;5033870;28;20404;-91
2021/12/31 06:34:10;;;;;;;0.10;0.10;;;;;;;;;;5017854;28;20041;-91
2021/12/31 06:36:36;;;;;;;0.10;0.10;;;;;;;;;;5017743;28;20384;-92
2021/12/31 06:39:03;;;;;;;0.10;0.10;;;;;;;;;;5017821;28;20041;-91
2021/12/31 06:41:30;;;;;;;0.10;0.10;;;;;;;;;;5018282;28;20088;-92
2021/12/31 06:43:56;;;;;;;0.10;0.10;;;;;;;;;;5017860;28;20045;-91
2021/12/31 06:46:21;;;;;;;0.20;0.20;;;;;;;;;;5017533;28;20465;-92
2021/12/31 06:48:47;;;;;;;0.10;0.10;;;;;;;;;;5017407;28;20041;-92
2021/12/31 06:51:13;;;;;;;0.20;0.20;;;;;;;;;;5017961;28;20037;-91
2021/12/31 06:53:40;;;;;;;0.10;0.10;;;;;;;;;;5017276;28;20341;-92
2021/12/31 06:56:06;;;;;;;0.10;0.10;;;;;;;;;;5017576;28;20205;-92
2021/12/31 06:58:32;;;;;;;0.10;0.10;;;;;;;;;;5017738;28;20374;-91
2021/12/31 07:00:58;;;;;;;0.10;0.10;;;;;;;;;;5017124;28;20129;-92
2021/12/31 07:03:24;;;;;;;0.20;0.20;;;;;;;;;;5017072;28;20171;-91
2021/12/31 07:05:50;;;;;;;0.10;0.10;;;;;;;;;;5017079;28;20128;-91
2021/12/31 07:08:16;;;;;;;0.10;0.10;;;;;;;;;;5034002;28;20041;-92
2021/12/31 07:10:42;;;;;;;0.10;0.10;;;;;;;;;;5016919;28;20045;-91
2021/12/31 07:13:11;;;;;;;0.10;0.10;;;;;;;;;;5033356;28;20037;-92
2021/12/31 07:15:49;;;;;;;0.20;0.20;;;;;;;;;;5017329;28;20045;-91
2021/12/31 07:18:15;;;;;;;0.10;0.10;;;;;;;;;;5018168;28;20115;-92
2021/12/31 07:20:42;;;;;;;0.10;0.10;;;;;;;;;;5017373;28;20440;-92
2021/12/31 07:23:11;;;;;;;0.10;0.10;;;;;;;;;;5017351;28;20425;-92
2021/12/31 07:25:38;;;;;;;0.10;0.10;;;;;;;;;;5033770;28;20091;-91
2021/12/31 07:28:08;;;;;;;0.10;0.10;;;;;;;;;;5017597;28;20049;-91
2021/12/31 07:30:37;;;;;;;0.10;0.10;;;;;;;;;;5016558;28;20041;-92
2021/12/31 07:33:03;;;;;;;0.10;0.10;;;;;;;;;;5016995;28;20116;-91
2021/12/31 07:35:31;;;;;;;0.10;0.10;;;;;;;;;;5016955;28;20095;-92
2021/12/31 07:37:57;;;;;;;0.57;0.57;;;;;;;;;;5017138;28;20201;-91
2021/12/31 07:40:37;;;;;;;0.10;0.10;;;;;;;;;;5016935;28;20192;-91
2021/12/31 07:43:03;;;;;;;0.10;0.10;;;;;;;;;;5018787;28;20374;-91
2021/12/31 07:45:29;;;;;;;0.10;0.10;;;;;;;;;;5016822;28;20048;-92
2021/12/31 07:47:55;;;;;;;0.20;0.20;;;;;;;;;;5016566;28;20396;-92
2021/12/31 07:50:21;;;;;;;0.20;0.20;;;;;;;;;;5016790;28;20037;-92
2021/12/31 07:52:47;;;;;;;0.10;0.10;;;;;;;;;;5016356;28;20097;-92
2021/12/31 07:55:13;;;;;;;0.10;0.10;;;;;;;;;;5016203;28;20087;-91
2021/12/31 07:57:39;;;;;;;0.10;0.10;;;;;;;;;;5016454;28;20477;-91
2021/12/31 08:00:05;;;;;;;0.10;0.10;;;;;;;;;;5016296;28;20048;-91
2021/12/31 08:02:31;;;;;;;0.10;0.10;;;;;;;;;;5016389;28;20456;-91
2021/12/31 08:04:57;;;;;;;0.10;0.10;;;;;;;;;;5016715;28;20458;-92
2021/12/31 08:07:23;;;;;;;0.10;0.10;;;;;;;;;;5016228;28;20080;-91
2021/12/31 08:09:49;;;;;;;0.10;0.10;;;;;;;;;;5016559;28;20049;-91
2021/12/31 08:12:15;;;;;;;0.10;0.10;;;;;;;;;;5016125;28;20128;-92
2021/12/31 08:14:41;;;;;;;0.20;0.20;;;;;;;;;;5015307;28;20045;-92
2021/12/31 08:17:07;;;;;;;0.10;0.10;;;;;;;;;;5016299;28;20048;-92
2021/12/31 08:19:34;;;;;;;0.10;0.10;;;;;;;;;;5016023;28;20048;-92
2021/12/31 08:22:00;;;;;;;0.10;0.10;;;;;;;;;;5032484;28;20069;-91
2021/12/31 08:24:26;;;;;;;0.13;0.13;;;;;;;;;;5015896;28;20045;-92
2021/12/31 08:26:52;;;;;;;0.10;0.10;;;;;;;;;;5016144;28;20037;-92
2021/12/31 08:29:18;;;;;;;0.10;0.10;;;;;;;;;;5016087;28;20041;-92
2021/12/31 08:31:44;;;;;;;0.15;0.15;;;;;;;;;;5015873;28;20397;-91
2021/12/31 08:34:11;;;;;;;0.10;0.10;;;;;;;;;;5031892;28;20378;-91
2021/12/31 08:36:37;;;;;;;0.13;0.13;;;;;;;;;;5015611;28;20037;-93
2021/12/31 08:39:04;;;;;;;0.20;0.20;;;;;;;;;;5015398;28;20311;-90
2021/12/31 08:41:30;;;;;;;0.10;0.10;;;;;;;;;;5015646;28;20049;-92
2021/12/31 08:43:56;;;;;;;0.10;0.10;;;;;;;;;;5015356;28;20041;-90
2021/12/31 08:46:24;;;;;;;0.10;0.10;;;;;;;;;;5015419;28;20049;-91
2021/12/31 08:48:50;;;;;;;0.10;0.10;;;;;;;;;;5015571;28;20041;-92
2021/12/31 08:51:16;;;;;;;0.10;0.10;;;;;;;;;;5015283;28;20044;-90
2021/12/31 08:53:42;;;;;;;0.10;0.10;;;;;;;;;;5015249;28;20558;-89
2021/12/31 08:56:08;;;;;;;0.17;0.17;;;;;;;;;;5015741;28;20042;-91
2021/12/31 08:58:34;;;;;;;0.20;0.20;;;;;;;;;;5015239;28;20090;-90
2021/12/31 09:01:00;;;;;;;0.10;0.10;;;;;;;;;;5015575;28;20456;-91
2021/12/31 09:03:26;;;;;;;0.10;0.10;;;;;;;;;;5031414;28;20037;-90
2021/12/31 09:05:52;;;;;;;0.20;0.20;;;;;;;;;;5015753;28;20075;-91
2021/12/31 09:08:18;;;;;;;0.10;0.10;;;;;;;;;;5015353;28;20044;-92
2021/12/31 09:10:44;;;;;;;0.10;0.10;;;;;;;;;;5014974;28;20069;-91
2021/12/31 09:13:10;;;;;;;0.10;0.10;;;;;;;;;;5015081;28;20041;-92
2021/12/31 09:15:36;;;;;;;0.10;0.10;;;;;;;;;;5015079;28;20052;-92
2021/12/31 09:18:02;;;;;;;0.10;0.10;;;;;;;;;;5015019;28;20064;-91
2021/12/31 09:20:29;;;;;;;0.10;0.10;;;;;;;;;;5015089;28;20397;-93
2021/12/31 09:22:55;;;;;;;0.10;0.10;;;;;;;;;;5014681;28;20064;-91
2021/12/31 09:25:21;;;;;;;0.10;0.10;;;;;;;;;;5015091;28;20037;-93
2021/12/31 09:27:47;;;;;;;0.10;0.10;;;;;;;;;;5015152;28;20393;-91
2021/12/31 09:30:13;;;;;;;0.10;0.10;;;;;;;;;;5014673;28;20048;-92
2021/12/31 09:32:39;;;;;;;0.10;0.10;;;;;;;;;;5014957;28;20041;-91
2021/12/31 09:35:07;;;;;;;0.10;0.10;;;;;;;;;;5014890;28;20037;-91
2021/12/31 09:37:33;;;;;;;0.17;0.17;;;;;;;;;;5031711;28;20041;-91
2021/12/31 09:39:59;;;;;;;0.20;0.20;;;;;;;;;;5015085;28;20386;-91
2021/12/31 09:42:25;;;;;;;0.10;0.10;;;;;;;;;;5014794;28;20041;-91
2021/12/31 09:44:51;;;;;;;0.20;0.20;;;;;;;;;;5014942;28;20107;-91
2021/12/31 09:47:17;;;;;;;0.10;0.10;;;;;;;;;;5015003;28;20053;-91
2021/12/31 09:49:44;;;;;;;0.30;0.30;;;;;;;;;;5014513;28;20045;-93
2021/12/31 09:52:10;;;;;;;0.30;0.30;;;;;;;;;;5014852;28;20060;-91
2021/12/31 09:54:37;;;;;;;0.10;0.10;;;;;;;;;;5015651;28;20131;-92
2021/12/31 09:57:04;;;;;;;0.10;0.10;;;;;;;;;;5014554;28;20072;-91
2021/12/31 09:59:31;;;;;;;0.10;0.10;;;;;;;;;;5031161;28;20052;-91
2021/12/31 10:01:58;;;;;;;0.10;0.10;;;;;;;;;;5031179;28;20546;-91
2021/12/31 10:04:24;;;;;;;0.13;0.13;;;;;;;;;;5014489;28;20041;-91
2021/12/31 10:07:06;;;;;;;0.17;0.17;;;;;;;;;;5030860;28;20077;-91
2021/12/31 10:09:32;;;;;;;0.10;0.10;;;;;;;;;;5030799;28;20115;-91
2021/12/31 10:11:58;;;;;;;0.25;0.25;;;;;;;;;;5014378;28;20488;-91
2021/12/31 10:14:37;;;;;;;0.15;0.15;;;;;;;;;;5014514;28;20054;-91
2021/12/31 10:17:03;;;;;;;0.10;0.10;;;;;;;;;;5030919;28;20049;-90
2021/12/31 10:19:29;;;;;;;0.10;0.10;;;;;;;;;;5014776;28;20116;-91
2021/12/31 10:21:56;;;;;;;0.20;0.20;;;;;;;;;;5014532;28;20072;-91
2021/12/31 10:24:33;;;;;;;0.20;0.20;;;;;;;;;;5014977;28;20139;-91
2021/12/31 10:27:03;;;;;;;0.17;0.17;;;;;;;;;;5014434;28;20428;-92
2021/12/31 10:29:29;;;;;;;0.10;0.10;;;;;;;;;;5030493;28;20070;-91
2021/12/31 10:31:55;;;;;;;0.43;0.20;;;;;;;;;;5014199;28;20120;-90
2021/12/31 10:34:31;;;;;;;0.20;0.20;;;;;;;;;;5014917;28;20037;-91
2021/12/31 10:37:22;;;;;;;0.10;0.10;;;;;;;;;;5016154;28;20049;-91
2021/12/31 10:39:58;;;;;;;0.10;0.10;;;;;;;;;;5034302;28;20095;-91
2021/12/31 10:42:32;;;;;;;0.10;0.10;;;;;;;;;;5017925;28;20053;-91
2021/12/31 10:44:58;;;;;;;0.10;0.10;;;;;;;;;;5017857;28;20072;-92
2021/12/31 10:47:24;;;;;;;0.10;0.10;;;;;;;;;;5017715;28;20086;-90
2021/12/31 10:50:09;;;;;;;0.15;0.15;;;;;;;;;;5034022;28;20081;-91
2021/12/31 10:53:10;;;;;;;0.15;0.15;;;;;;;;;;5034278;28;20384;-91
2021/12/31 10:55:40;;;;;;;0.10;0.10;;;;;;;;;;5034237;28;20419;-91
2021/12/31 10:58:06;;;;;;;0.10;0.10;;;;;;;;;;5018397;28;20397;-91
2021/12/31 11:00:33;;;;;;;0.10;0.10;;;;;;;;;;5017345;28;20045;-91
2021/12/31 11:02:59;;;;;;;0.10;0.10;;;;;;;;;;5017796;28;20042;-91
2021/12/31 11:05:25;;;;;;;0.10;0.10;;;;;;;;;;5017442;28;20041;-91
2021/12/31 11:07:52;;;;;;;0.17;0.17;;;;;;;;;;5017564;28;20110;-91
2021/12/31 11:10:19;;;;;;;0.10;0.10;;;;;;;;;;5033503;28;20041;-92
2021/12/31 11:12:47;;;;;;;0.10;0.10;;;;;;;;;;5017549;28;20045;-91
2021/12/31 11:15:13;;;;;;;0.10;0.10;;;;;;;;;;5017558;28;20099;-91
2021/12/31 11:17:40;;;;;;;0.20;0.20;;;;;;;;;;5017194;28;20053;-90
2021/12/31 11:20:06;;;;;;;0.10;0.10;;;;;;;;;;5017175;28;20052;-90
2021/12/31 11:22:34;;;;;;;0.10;0.10;;;;;;;;;;5016710;28;20049;-90
2021/12/31 11:25:18;;;;;;;0.10;0.10;;;;;;;;;;5016862;28;20041;-90
2021/12/31 11:27:47;;;;;;;0.10;0.10;;;;;;;;;;5033237;28;20055;-90
2021/12/31 11:30:32;;;;;;;0.10;0.10;;;;;;;;;;5016788;28;20041;-91
2021/12/31 11:33:14;;;;;;;0.10;0.10;;;;;;;;;;5032923;28;20116;-89
2021/12/31 11:35:43;;;;;;;0.10;0.10;;;;;;;;;;5016475;28;20069;-90
2021/12/31 11:38:21;;;;;;;0.30;0.30;;;;;;;;;;5016718;28;20049;-89
2021/12/31 11:40:51;;;;;;;0.10;0.10;;;;;;;;;;5033262;28;20131;-90
2021/12/31 11:43:23;;;;;;;0.10;0.10;;;;;;;;;;5017112;28;20569;-90
2021/12/31 11:46:07;;;;;;;0.20;0.20;;;;;;;;;;5017486;28;20045;-91
2021/12/31 11:48:47;;;;;;;0.10;0.10;;;;;;;;;;5037317;28;20042;-90
2021/12/31 11:51:20;;;;;;;0.20;0.20;;;;;;;;;;5038069;28;20416;-91
2021/12/31 11:53:58;;;;;;;0.20;0.20;;;;;;;;;;5027047;28;20063;-90
2021/12/31 11:56:34;;;;;;;0.10;0.10;;;;;;;;;;5057347;28;20037;-90
2021/12/31 11:59:12;;;;;;;0.10;0.10;;;;;;;;;;5046330;28;20128;-91
2021/12/31 12:01:48;;;;;;;0.10;0.10;;;;;;;;;;5032864;28;20064;-91
2021/12/31 12:04:36;;;;;;;0.10;0.10;;;;;;;;;;5016873;28;20048;-91
2021/12/31 12:07:04;;;;;;;0.10;0.10;;;;;;;;;;5032813;28;20049;-91
2021/12/31 12:09:36;;;;;;;0.10;0.10;;;;;;;;;;5016435;28;20045;-90
2021/12/31 12:12:03;;;;;;;0.10;0.10;;;;;;;;;;5032537;28;20547;-91
2021/12/31 12:14:29;;;;;;;0.10;0.10;;;;;;;;;;5032226;28;20050;-91
2021/12/31 12:16:58;;;;;;;0.10;0.10;;;;;;;;;;5016213;28;20045;-91
2021/12/31 12:19:43;;;;;;;0.10;0.10;;;;;;;;;;5016586;28;20091;-92
2021/12/31 12:22:09;;;;;;;0.10;0.10;;;;;;;;;;5033078;28;20473;-92
2021/12/31 12:24:38;;;;;;;0.20;0.20;;;;;;;;;;5016368;28;20041;-91
2021/12/31 12:27:08;;;;;;;0.10;0.10;;;;;;;;;;5019706;28;20053;-92
2021/12/31 12:29:39;;;;;;;0.10;0.10;;;;;;;;;;5019798;28;20045;-92
2021/12/31 12:32:08;;;;;;;0.10;0.10;;;;;;;;;;5032763;28;20045;-91
2021/12/31 12:34:34;;;;;;;0.10;0.10;;;;;;;;;;5015907;28;20040;-92
2021/12/31 12:37:01;;;;;;;0.10;0.10;;;;;;;;;;5015784;28;20045;-92
2021/12/31 12:39:27;;;;;;;0.10;0.10;;;;;;;;;;5015985;28;20084;-92
2021/12/31 12:41:53;;;;;;;0.10;0.10;;;;;;;;;;5016122;28;20077;-91
2021/12/31 12:44:19;;;;;;;0.10;0.10;;;;;;;;;;5015714;28;20571;-92
2021/12/31 12:46:58;;;;;;;0.10;0.10;;;;;;;;;;5016422;28;20051;-92
2021/12/31 12:49:24;;;;;;;0.10;0.10;;;;;;;;;;5015652;28;20042;-91
2021/12/31 12:52:52;;;;;;;0.13;0.13;;;;;;;;;;5016689;28;20044;-94
2021/12/31 12:55:13;;;;;;;0.10;0.10;;;;;;;;;;5029813;28;20476;-89
2021/12/31 12:57:39;;;;;;;0.10;0.10;;;;;;;;;;5015695;28;20077;-93
2021/12/31 13:03:10;;;;;;;0.10;0.10;;;;;;;;;;5030823;28;20045;-92
2021/12/31 13:05:37;;;;;;;0.10;0.10;;;;;;;;;;5015850;28;20041;-93
2021/12/31 13:08:03;;;;;;;0.10;0.10;;;;;;;;;;5015487;28;20489;-89
2021/12/31 13:10:30;;;;;;;0.52;0.20;;;;;;;;;;5014782;28;20045;-91
2021/12/31 13:12:57;;;;;;;0.20;0.20;;;;;;;;;;5015274;28;20041;-90
2021/12/31 13:15:26;;;;;;;0.10;0.10;;;;;;;;;;5031005;28;20050;-91
2021/12/31 13:17:58;;;;;;;0.10;0.10;;;;;;;;;;5014666;28;20052;-90
2021/12/31 13:20:28;;;;;;;0.10;0.10;;;;;;;;;;5031391;28;20041;-90
2021/12/31 13:22:55;;;;;;;0.10;0.10;;;;;;;;;;5014815;28;20128;-91
2021/12/31 13:25:21;;;;;;;0.10;0.10;;;;;;;;;;5014904;28;20500;-90
2021/12/31 13:27:46;;;;;;;0.10;0.10;;;;;;;;;;5014898;28;20128;-91
2021/12/31 13:30:13;;;;;;;0.20;0.20;;;;;;;;;;5014755;28;20083;-90
2021/12/31 13:32:42;;;;;;;0.20;0.20;;;;;;;;;;5031109;28;20037;-90
2021/12/31 13:35:09;;;;;;;0.10;0.10;;;;;;;;;;5014508;28;20128;-91
2021/12/31 13:37:39;;;;;;;0.10;0.10;;;;;;;;;;5014444;28;20044;-90
2021/12/31 13:40:06;;;;;;;0.10;0.10;;;;;;;;;;5014885;28;20048;-95
2021/12/31 13:42:37;;;;;;;0.20;0.20;;;;;;;;;;4999066;28;20053;-94
2021/12/31 13:45:03;;;;;;;0.10;0.10;;;;;;;;;;4999186;28;20038;-91
2021/12/31 13:47:29;;;;;;;0.10;0.10;;;;;;;;;;4998480;28;20048;-92
2021/12/31 13:50:03;;;;;;;0.10;0.10;;;;;;;;;;4998321;28;20042;-92
2021/12/31 13:52:29;;;;;;;0.10;0.10;;;;;;;;;;5014595;28;20048;-92
2021/12/31 13:54:56;;;;;;;1.88;0.20;;;;;;;;;;4998446;28;20067;-94
2021/12/31 13:57:24;;;;;;;0.10;0.10;;;;;;;;;;5014680;28;20045;-91
2021/12/31 13:59:50;;;;;;;0.10;0.10;;;;;;;;;;4997818;28;20100;-91
2021/12/31 14:02:28;;;;;;;0.10;0.10;;;;;;;;;;4997934;28;20373;-91
2021/12/31 14:04:54;;;;;;;0.10;0.10;;;;;;;;;;4997685;28;20220;-91
2021/12/31 14:07:31;;;;;;;0.10;0.10;;;;;;;;;;5014406;28;20185;-91
2021/12/31 14:10:01;;;;;;;0.10;0.10;;;;;;;;;;5014520;28;20048;-91
2021/12/31 14:12:27;;;;;;;0.28;0.28;;;;;;;;;;5016243;28;20449;-89
2021/12/31 14:14:53;;;;;;;0.20;0.20;;;;;;;;;;5017575;28;20054;-91
2021/12/31 14:17:20;;;;;;;0.30;0.30;;;;;;;;;;5002019;28;20045;-89
2021/12/31 14:19:46;;;;;;;0.10;0.10;;;;;;;;;;5001820;28;20059;-93
2021/12/31 14:22:12;;;;;;;0.10;0.10;;;;;;;;;;5001937;28;20132;-92
2021/12/31 14:24:38;;;;;;;0.20;0.20;;;;;;;;;;5001402;28;20042;-91
2021/12/31 14:27:04;;;;;;;0.10;0.10;;;;;;;;;;5001636;28;20272;-90
2021/12/31 14:29:30;;;;;;;0.20;0.20;;;;;;;;;;5017328;28;20042;-91
2021/12/31 14:31:56;;;;;;;0.10;0.10;;;;;;;;;;5000641;28;20043;-88
2021/12/31 14:34:25;;;;;;;0.10;0.10;;;;;;;;;;5017011;28;20048;-88
2021/12/31 14:36:52;;;;;;;0.20;0.20;;;;;;;;;;5001208;28;20140;-89
2021/12/31 14:39:19;;;;;;;0.10;0.10;;;;;;;;;;5033290;28;20041;-90
2021/12/31 14:41:45;;;;;;;0.10;0.10;;;;;;;;;;5001430;28;20254;-90
2021/12/31 14:44:11;;;;;;;0.10;0.10;;;;;;;;;;5016822;28;20451;-87
2021/12/31 14:46:37;;;;;;;0.10;0.10;;;;;;;;;;5017058;28;20132;-89
2021/12/31 14:49:04;;;;;;;0.10;0.10;;;;;;;;;;5000693;28;20041;-90
2021/12/31 14:51:30;;;;;;;0.10;0.10;;;;;;;;;;5000769;28;20080;-90
2021/12/31 14:53:56;;;;;;;0.20;0.20;;;;;;;;;;5017235;28;20041;-92